Time;durP1;ratioP1;P1;durP2;ratioP2;P2;SDS_P1;SDS_P2;PMS_P1;PMS_P2;Temp;Humidity;BMP_temperature;BMP_pressure;BME280_temperature;BME280_humidity;BME280_pressure;Samples;Min_cycle;Max_cycle;Signal;HPM_P1;HPM_P2
2021/09/19 00:01:11;;;;;;;4.50;2.50;;;;;;;13.54;94.69;101128.81;112273;1192;61151;-82
2021/09/19 00:03:41;;;;;;;5.00;2.20;;;;;;;13.53;94.78;101124.92;112081;1192;61812;-76
2021/09/19 00:06:07;;;;;;;7.10;3.10;;;;;;;13.52;94.99;101127.17;112206;1192;74639;-77
2021/09/19 00:08:34;;;;;;;12.10;2.70;;;;;;;13.51;94.91;101127.98;112279;1192;61052;-75
2021/09/19 00:11:01;;;;;;;5.20;3.00;;;;;;;13.50;95.15;101131.13;112635;1193;72789;-77
2021/09/19 00:13:28;;;;;;;5.90;2.40;;;;;;;13.49;95.07;101127.30;112273;1192;61960;-76
2021/09/19 00:15:54;;;;;;;7.20;3.10;;;;;;;13.49;95.02;101128.40;112409;1192;60977;-77
2021/09/19 00:18:21;;;;;;;4.60;2.90;;;;;;;13.46;95.19;101127.91;112278;1193;75735;-76
2021/09/19 00:20:48;;;;;;;4.80;3.00;;;;;;;13.44;95.21;101128.59;112422;1192;60979;-76
2021/09/19 00:23:15;;;;;;;8.60;3.80;;;;;;;13.43;95.46;101122.33;112233;1196;73631;-75
2021/09/19 00:25:41;;;;;;;6.60;3.60;;;;;;;13.43;95.48;101125.66;112566;1192;62616;-76
2021/09/19 00:28:08;;;;;;;7.90;3.40;;;;;;;13.41;95.45;101124.08;112332;1193;61005;-77
2021/09/19 00:30:34;;;;;;;6.90;3.90;;;;;;;13.41;95.37;101123.42;112275;1192;61152;-78
2021/09/19 00:33:01;;;;;;;6.80;2.80;;;;;;;13.40;95.42;101121.52;112312;1184;61167;-76
2021/09/19 00:35:28;;;;;;;7.00;2.30;;;;;;;13.40;95.30;101124.02;112353;1193;60967;-76
2021/09/19 00:37:55;;;;;;;8.80;2.90;;;;;;;13.40;95.27;101121.89;112446;1192;62638;-78
2021/09/19 00:40:22;;;;;;;3.80;2.50;;;;;;;13.40;95.31;101120.12;112493;1192;60949;-76
2021/09/19 00:42:49;;;;;;;5.40;2.80;;;;;;;13.40;95.28;101120.13;112411;1192;75737;-80
2021/09/19 00:45:18;;;;;;;4.60;2.80;;;;;;;13.40;95.28;101118.40;112259;1193;61069;-77
2021/09/19 00:47:45;;;;;;;5.80;2.90;;;;;;;13.37;95.23;101114.43;112256;1192;73590;-77
2021/09/19 00:50:13;;;;;;;4.60;3.00;;;;;;;13.36;95.19;101119.61;112195;1196;60175;-77
2021/09/19 00:52:41;;;;;;;7.00;3.10;;;;;;;13.34;94.94;101119.86;112295;1193;61092;-77
2021/09/19 00:55:10;;;;;;;7.10;3.10;;;;;;;13.33;95.06;101121.62;112236;1193;75847;-77
2021/09/19 00:57:43;;;;;;;5.80;2.70;;;;;;;13.31;95.01;101120.52;112249;1192;71192;-76
2021/09/19 01:00:13;;;;;;;6.70;3.20;;;;;;;13.31;95.11;101118.95;112234;1193;73677;-79
2021/09/19 01:02:39;;;;;;;7.70;2.50;;;;;;;13.29;95.03;101117.07;112540;1193;61852;-79
2021/09/19 01:05:08;;;;;;;8.50;2.90;;;;;;;13.27;95.16;101113.46;112393;1193;61058;-77
2021/09/19 01:07:35;;;;;;;5.00;2.90;;;;;;;13.26;94.97;101116.98;112304;1193;75686;-76
2021/09/19 01:10:02;;;;;;;7.90;2.80;;;;;;;13.25;94.84;101116.63;112706;1193;71071;-76
2021/09/19 01:12:29;;;;;;;5.70;2.60;;;;;;;13.24;95.29;101115.48;112259;1193;72594;-76
2021/09/19 01:14:58;;;;;;;4.80;2.60;;;;;;;13.23;95.11;101110.90;112319;1193;62820;-79
2021/09/19 01:17:26;;;;;;;6.60;3.10;;;;;;;13.22;94.93;101109.27;112258;1192;61043;-76
2021/09/19 01:19:57;;;;;;;4.50;2.60;;;;;;;13.21;94.77;101105.55;112306;1193;74770;-76
2021/09/19 01:22:34;;;;;;;4.60;3.50;;;;;;;13.18;94.78;101105.05;112300;1192;72017;-76
2021/09/19 01:25:03;;;;;;;10.20;3.30;;;;;;;13.13;94.49;101100.91;112269;1192;73425;-75
2021/09/19 01:27:30;;;;;;;6.10;3.10;;;;;;;13.10;94.52;101101.86;112431;1193;61632;-76
2021/09/19 01:29:56;;;;;;;5.60;3.00;;;;;;;13.07;94.54;101102.92;112269;1192;61093;-81
2021/09/19 01:32:23;;;;;;;5.10;2.50;;;;;;;13.02;94.19;101103.66;112269;1193;75795;-78
2021/09/19 01:34:52;;;;;;;8.10;2.80;;;;;;;12.96;93.72;101100.89;112332;1192;72291;-77
2021/09/19 01:37:19;;;;;;;5.90;2.90;;;;;;;12.89;93.57;101099.59;112514;1192;72535;-74
2021/09/19 01:39:46;;;;;;;4.70;2.60;;;;;;;12.84;93.36;101099.69;112170;1193;61765;-77
2021/09/19 01:42:13;;;;;;;5.20;2.90;;;;;;;12.81;93.21;101101.69;112420;1193;61023;-77
2021/09/19 01:44:40;;;;;;;6.00;2.50;;;;;;;12.77;92.88;101097.27;112239;1193;74281;-77
2021/09/19 01:47:07;;;;;;;4.30;2.40;;;;;;;12.72;92.76;101099.95;112560;1194;71242;-79
2021/09/19 01:49:33;;;;;;;8.00;3.30;;;;;;;12.68;92.56;101092.45;112271;1194;72924;-78
2021/09/19 01:52:00;;;;;;;6.20;2.80;;;;;;;12.63;92.29;101095.24;112362;1192;62662;-77
2021/09/19 01:54:28;;;;;;;6.70;2.50;;;;;;;12.58;92.07;101089.83;112238;1195;61049;-76
2021/09/19 01:56:54;;;;;;;6.50;3.60;;;;;;;12.51;91.85;101097.23;112214;1192;74694;-76
2021/09/19 01:59:20;;;;;;;5.00;2.40;;;;;;;12.43;91.76;101095.49;112248;1193;61168;-77
2021/09/19 02:01:47;;;;;;;9.10;3.30;;;;;;;12.35;91.68;101096.91;112273;1192;61024;-77
2021/09/19 02:04:14;;;;;;;3.60;2.20;;;;;;;12.29;91.70;101098.89;112256;1192;61323;-76
2021/09/19 02:06:41;;;;;;;6.10;2.00;;;;;;;12.22;91.64;101101.26;112268;1193;61378;-76
2021/09/19 02:09:07;;;;;;;9.10;2.10;;;;;;;12.16;91.74;101100.66;112261;1192;73563;-77
2021/09/19 02:11:34;;;;;;;4.20;2.20;;;;;;;12.14;92.00;101101.79;112283;1185;60986;-77
2021/09/19 02:14:00;;;;;;;3.60;2.20;;;;;;;12.10;91.90;101101.86;112212;1193;61059;-76
2021/09/19 02:16:26;;;;;;;5.30;2.10;;;;;;;12.09;91.94;101104.30;112344;1192;61071;-77
2021/09/19 02:18:56;;;;;;;5.40;2.80;;;;;;;12.06;91.94;101101.28;112237;1192;61113;-77
2021/09/19 02:21:23;;;;;;;6.40;3.10;;;;;;;12.03;91.92;101101.95;112437;1193;74598;-77
2021/09/19 02:23:50;;;;;;;4.70;2.50;;;;;;;12.01;91.86;101095.77;112302;1192;71101;-75
2021/09/19 02:26:16;;;;;;;3.30;2.20;;;;;;;11.99;91.82;101095.93;112243;1193;61066;-74
2021/09/19 02:28:43;;;;;;;5.10;2.40;;;;;;;11.96;91.84;101093.62;112241;1194;61986;-76
2021/09/19 02:31:10;;;;;;;3.10;1.70;;;;;;;11.93;91.80;101093.36;112286;1193;61992;-77
2021/09/19 02:33:37;;;;;;;6.70;2.30;;;;;;;11.89;91.70;101092.75;112435;1192;74733;-79
2021/09/19 02:36:04;;;;;;;2.50;1.50;;;;;;;11.87;91.96;101095.59;112147;1193;71117;-80
2021/09/19 02:38:31;;;;;;;6.50;2.40;;;;;;;11.84;92.15;101092.54;112184;1192;71700;-75
2021/09/19 02:40:58;;;;;;;4.10;1.90;;;;;;;11.83;92.16;101093.54;112260;1192;61955;-77
2021/09/19 02:43:24;;;;;;;6.70;2.70;;;;;;;11.83;92.09;101088.05;112240;1193;62075;-74
2021/09/19 02:45:51;;;;;;;5.40;3.00;;;;;;;11.82;92.26;101087.48;112191;1193;74623;-75
2021/09/19 02:48:18;;;;;;;3.60;2.10;;;;;;;11.82;92.38;101090.98;112273;1193;70105;-77
2021/09/19 02:50:45;;;;;;;6.90;2.50;;;;;;;11.82;92.21;101089.60;112432;1193;72561;-78
2021/09/19 02:53:11;;;;;;;4.60;2.30;;;;;;;11.82;92.36;101090.63;112370;1193;62809;-79
2021/09/19 02:55:38;;;;;;;8.50;3.40;;;;;;;11.82;92.25;101086.38;112267;1192;61595;-76
2021/09/19 02:58:04;;;;;;;7.10;2.50;;;;;;;11.83;92.28;101087.49;112178;1192;61019;-76
2021/09/19 03:00:32;;;;;;;5.70;1.90;;;;;;;11.84;92.21;101087.23;112217;1193;62001;-76
2021/09/19 03:02:59;;;;;;;4.30;1.90;;;;;;;11.83;92.25;101088.40;112313;1193;72644;-76
2021/09/19 03:05:26;;;;;;;3.00;1.50;;;;;;;11.84;92.37;101085.10;112109;1194;62211;-76
2021/09/19 03:07:55;;;;;;;7.60;3.60;;;;;;;11.85;92.42;101087.90;112566;1193;61970;-77
2021/09/19 03:10:22;;;;;;;8.80;2.20;;;;;;;11.85;92.49;101084.86;112470;1193;75262;-75
2021/09/19 03:12:49;;;;;;;4.00;2.00;;;;;;;11.83;92.34;101080.58;112282;1193;70494;-76
2021/09/19 03:15:15;;;;;;;3.80;2.20;;;;;;;11.82;92.34;101076.14;112207;1194;72408;-77
2021/09/19 03:17:42;;;;;;;4.30;2.30;;;;;;;11.82;92.38;101078.67;112189;1192;61651;-77
2021/09/19 03:20:11;;;;;;;7.00;2.40;;;;;;;11.82;92.56;101076.34;112229;1192;61027;-77
2021/09/19 03:22:39;;;;;;;4.20;2.10;;;;;;;11.81;92.45;101074.40;112550;1192;74591;-75
2021/09/19 03:25:06;;;;;;;4.40;3.00;;;;;;;11.81;92.41;101077.31;112239;1193;72084;-76
2021/09/19 03:27:34;;;;;;;4.60;2.10;;;;;;;11.81;92.51;101076.54;112171;1194;72605;-76
2021/09/19 03:30:01;;;;;;;4.30;2.50;;;;;;;11.82;92.58;101080.66;112275;1193;61908;-76
2021/09/19 03:32:28;;;;;;;3.90;1.60;;;;;;;11.83;92.60;101073.48;112293;1186;61086;-77
2021/09/19 03:34:54;;;;;;;8.60;3.00;;;;;;;11.82;92.55;101075.73;112170;1193;75910;-76
2021/09/19 03:37:21;;;;;;;3.80;2.00;;;;;;;11.81;92.58;101072.45;112211;1199;61042;-78
2021/09/19 03:39:47;;;;;;;3.60;2.10;;;;;;;11.80;92.63;101077.55;112233;1193;61107;-75
2021/09/19 03:42:14;;;;;;;4.40;2.90;;;;;;;11.79;92.63;101074.73;112191;1193;61005;-76
2021/09/19 03:44:40;;;;;;;5.10;2.50;;;;;;;11.78;92.62;101072.02;112162;1192;60976;-76
2021/09/19 03:47:07;;;;;;;8.20;2.30;;;;;;;11.79;92.61;101071.55;112255;1193;61151;-76
2021/09/19 03:49:33;;;;;;;5.10;2.30;;;;;;;11.78;92.58;101073.61;112155;1193;61144;-77
2021/09/19 03:52:00;;;;;;;6.40;2.40;;;;;;;11.77;92.35;101076.15;112138;1193;61103;-78
2021/09/19 03:54:27;;;;;;;3.60;1.90;;;;;;;11.75;92.71;101077.77;112222;1193;61036;-77
2021/09/19 03:56:53;;;;;;;6.00;2.20;;;;;;;11.74;92.81;101076.65;112224;1192;61082;-82
2021/09/19 03:59:20;;;;;;;6.00;2.50;;;;;;;11.74;92.60;101075.25;112191;1193;61064;-76
2021/09/19 04:01:46;;;;;;;4.00;2.50;;;;;;;11.72;92.72;101077.22;112437;1194;71982;-74
2021/09/19 04:04:13;;;;;;;3.80;2.30;;;;;;;11.70;92.76;101079.59;112230;1192;72395;-76
2021/09/19 04:06:40;;;;;;;5.10;2.60;;;;;;;11.68;92.74;101079.29;112134;1193;61049;-76
2021/09/19 04:09:06;;;;;;;4.50;2.40;;;;;;;11.68;92.86;101080.06;112400;1193;61580;-77
2021/09/19 04:11:33;;;;;;;8.30;2.60;;;;;;;11.68;93.00;101077.94;112187;1193;61082;-78
2021/09/19 04:13:59;;;;;;;3.50;2.40;;;;;;;11.69;92.99;101078.20;112279;1177;61934;-79
2021/09/19 04:16:26;;;;;;;8.40;3.10;;;;;;;11.69;93.16;101080.92;112235;1193;71314;-76
2021/09/19 04:18:53;;;;;;;4.70;2.90;;;;;;;11.71;93.16;101083.42;111987;1194;62317;-76
2021/09/19 04:21:19;;;;;;;6.10;2.50;;;;;;;11.72;93.09;101084.52;111930;1193;60996;-76
2021/09/19 04:23:46;;;;;;;5.10;2.30;;;;;;;11.72;93.21;101082.56;112052;1193;61522;-77
2021/09/19 04:26:12;;;;;;;9.60;2.70;;;;;;;11.71;93.09;101085.86;112071;1193;60988;-76
2021/09/19 04:28:39;;;;;;;6.00;2.80;;;;;;;11.69;93.03;101084.33;112210;1193;61085;-75
2021/09/19 04:31:05;;;;;;;6.10;2.70;;;;;;;11.67;93.14;101087.58;112203;1193;61118;-76
2021/09/19 04:33:32;;;;;;;6.20;2.60;;;;;;;11.67;93.07;101088.36;112150;1193;61063;-76
2021/09/19 04:35:58;;;;;;;5.00;2.60;;;;;;;11.66;93.10;101084.68;112178;1192;60940;-76
2021/09/19 04:38:25;;;;;;;7.20;2.70;;;;;;;11.66;93.08;101082.60;112169;1193;61045;-77
2021/09/19 04:40:51;;;;;;;5.80;2.70;;;;;;;11.65;93.18;101084.11;112262;1193;61491;-75
2021/09/19 04:43:18;;;;;;;4.00;2.70;;;;;;;11.65;93.28;101081.23;112078;1194;61174;-74
2021/09/19 04:45:44;;;;;;;5.30;2.70;;;;;;;11.64;93.29;101085.10;112305;1193;61011;-77
2021/09/19 04:48:11;;;;;;;8.40;2.80;;;;;;;11.63;93.48;101087.66;112378;1193;61042;-76
2021/09/19 04:50:37;;;;;;;5.30;2.40;;;;;;;11.62;93.20;101086.73;112198;1193;61043;-76
2021/09/19 04:53:04;;;;;;;7.20;2.40;;;;;;;11.61;93.32;101093.02;112302;1193;61137;-78
2021/09/19 04:55:30;;;;;;;3.70;2.40;;;;;;;11.61;93.30;101093.95;112201;1193;61045;-78
2021/09/19 04:57:57;;;;;;;7.60;2.60;;;;;;;11.61;93.38;101094.48;112289;1193;61078;-78
2021/09/19 05:00:23;;;;;;;4.70;2.60;;;;;;;11.59;93.48;101095.08;112110;1192;60927;-76
2021/09/19 05:02:50;;;;;;;5.40;2.50;;;;;;;11.57;93.67;101097.70;112226;1196;61074;-77
2021/09/19 05:05:17;;;;;;;5.60;2.10;;;;;;;11.58;93.61;101102.89;112484;1193;61460;-78
2021/09/19 05:07:56;;;;;;;5.60;2.70;;;;;;;11.58;93.48;101105.05;112236;1193;61157;-75
2021/09/19 05:10:22;;;;;;;5.40;2.10;;;;;;;11.58;93.54;101101.88;112228;1193;61075;-78
2021/09/19 05:12:51;;;;;;;3.60;2.20;;;;;;;11.58;93.51;101101.02;112213;1193;74715;-76
2021/09/19 05:15:18;;;;;;;2.90;1.50;;;;;;;11.56;93.54;101100.27;112185;1193;71621;-78
2021/09/19 05:17:44;;;;;;;4.80;2.30;;;;;;;11.55;93.76;101100.94;111939;1193;61071;-77
2021/09/19 05:20:11;;;;;;;4.50;2.30;;;;;;;11.54;93.74;101098.74;112287;1193;61036;-75
2021/09/19 05:22:37;;;;;;;4.50;2.30;;;;;;;11.52;93.82;101100.27;112289;1193;61151;-78
2021/09/19 05:25:05;;;;;;;5.50;2.40;;;;;;;11.53;93.90;101098.23;112481;1192;60960;-74
2021/09/19 05:27:31;;;;;;;6.00;2.30;;;;;;;11.55;93.99;101095.85;112272;1192;71106;-75
2021/09/19 05:29:58;;;;;;;7.20;2.10;;;;;;;11.56;93.87;101097.71;112298;1193;73047;-77
2021/09/19 05:32:25;;;;;;;8.10;2.60;;;;;;;11.57;93.73;101099.51;112199;1193;61908;-77
2021/09/19 05:34:51;;;;;;;5.70;2.70;;;;;;;11.58;93.80;101100.60;112411;1193;60955;-74
2021/09/19 05:37:18;;;;;;;4.70;2.70;;;;;;;11.61;93.73;101101.89;112259;1193;61074;-78
2021/09/19 05:39:44;;;;;;;5.30;2.50;;;;;;;11.64;93.88;101100.48;112156;1193;61039;-77
2021/09/19 05:42:11;;;;;;;4.50;2.00;;;;;;;11.67;93.56;101104.48;112371;1193;61062;-76
2021/09/19 05:44:37;;;;;;;6.70;2.50;;;;;;;11.68;93.47;101101.89;112221;1193;61089;-78
2021/09/19 05:47:04;;;;;;;4.50;2.50;;;;;;;11.69;93.64;101105.05;112414;1193;61063;-77
2021/09/19 05:49:30;;;;;;;6.80;2.20;;;;;;;11.71;93.40;101108.35;112198;1193;61048;-76
2021/09/19 05:52:09;;;;;;;4.80;2.60;;;;;;;11.72;93.30;101109.48;111859;1193;61041;-78
2021/09/19 05:54:36;;;;;;;4.10;2.60;;;;;;;11.74;93.39;101112.33;112583;1193;73923;-76
2021/09/19 05:57:03;;;;;;;6.50;2.50;;;;;;;11.76;93.41;101112.05;112350;1193;61602;-76
2021/09/19 05:59:29;;;;;;;4.40;2.10;;;;;;;11.79;93.34;101113.34;112320;1192;61059;-77
2021/09/19 06:01:56;;;;;;;5.20;1.90;;;;;;;11.80;93.15;101116.20;112212;1193;61122;-77
2021/09/19 06:04:23;;;;;;;7.00;2.30;;;;;;;11.80;93.16;101118.85;112302;1193;69870;-76
2021/09/19 06:06:49;;;;;;;3.20;2.00;;;;;;;11.82;93.29;101118.80;112197;1193;61059;-77
2021/09/19 06:09:21;;;;;;;6.50;2.90;;;;;;;11.84;93.23;101110.61;112234;1193;61050;-78
2021/09/19 06:11:47;;;;;;;3.20;2.00;;;;;;;11.87;93.03;101107.64;112428;1192;62075;-77
2021/09/19 06:14:14;;;;;;;3.60;2.40;;;;;;;11.88;93.02;101111.46;112105;1192;61005;-78
2021/09/19 06:16:40;;;;;;;8.20;2.80;;;;;;;11.92;92.90;101109.16;112282;1193;61044;-77
2021/09/19 06:19:07;;;;;;;5.50;2.70;;;;;;;11.95;92.98;101108.05;111928;1193;62153;-76
2021/09/19 06:21:33;;;;;;;3.50;2.30;;;;;;;11.99;92.71;101104.58;112052;1193;61985;-76
2021/09/19 06:24:00;;;;;;;3.50;2.40;;;;;;;12.03;92.77;101108.35;112053;1192;61071;-76
2021/09/19 06:26:27;;;;;;;5.80;2.50;;;;;;;12.08;92.49;101104.23;111977;1193;61076;-75
2021/09/19 06:28:53;;;;;;;4.30;2.30;;;;;;;12.13;92.24;101106.72;112169;1192;70978;-78
2021/09/19 06:31:22;;;;;;;3.30;2.10;;;;;;;12.16;92.20;101108.80;112417;1193;61141;-74
2021/09/19 06:33:50;;;;;;;5.30;2.50;;;;;;;12.19;91.88;101110.25;112274;1193;61131;-74
2021/09/19 06:36:16;;;;;;;5.40;2.40;;;;;;;12.21;91.81;101110.17;112329;1193;61041;-78
2021/09/19 06:38:43;;;;;;;5.70;2.60;;;;;;;12.26;91.98;101112.54;112490;1180;122212;-77
2021/09/19 06:41:09;;;;;;;4.00;2.40;;;;;;;12.32;91.68;101111.83;111792;1193;61071;-77
2021/09/19 06:43:35;;;;;;;4.70;2.00;;;;;;;12.38;91.43;101109.52;112090;1192;61056;-75
2021/09/19 06:46:02;;;;;;;4.60;2.30;;;;;;;12.42;91.17;101108.20;112258;1193;61042;-77
2021/09/19 06:48:29;;;;;;;5.70;2.20;;;;;;;12.46;90.95;101106.85;112084;1193;61064;-77
2021/09/19 06:50:55;;;;;;;4.80;3.10;;;;;;;12.51;90.71;101114.96;112270;1193;61132;-76
2021/09/19 06:53:21;;;;;;;5.40;2.50;;;;;;;12.55;90.72;101111.47;112127;1192;61046;-76
2021/09/19 06:55:48;;;;;;;7.00;2.50;;;;;;;12.59;90.36;101112.94;112179;1193;60984;-76
2021/09/19 06:58:14;;;;;;;3.80;2.20;;;;;;;12.62;89.85;101116.02;111845;1193;61018;-78
2021/09/19 07:00:41;;;;;;;4.90;2.10;;;;;;;12.64;89.71;101117.38;112137;1193;61000;-76
2021/09/19 07:03:07;;;;;;;5.00;2.10;;;;;;;12.65;89.56;101118.75;111777;1193;61957;-77
2021/09/19 07:05:34;;;;;;;5.90;2.30;;;;;;;12.70;89.72;101113.35;111770;1193;61058;-77
2021/09/19 07:08:01;;;;;;;6.90;2.30;;;;;;;12.73;89.59;101113.95;111802;1194;61045;-76
2021/09/19 07:10:27;;;;;;;5.10;2.60;;;;;;;12.78;89.38;101110.27;112178;1192;61867;-76
2021/09/19 07:12:54;;;;;;;4.50;2.20;;;;;;;12.82;89.07;101112.63;112187;1192;61030;-74
2021/09/19 07:15:20;;;;;;;4.20;2.10;;;;;;;12.88;88.96;101115.84;111801;1193;61086;-78
2021/09/19 07:17:47;;;;;;;6.60;2.70;;;;;;;12.92;88.54;101112.81;112185;1193;61684;-76
2021/09/19 07:20:13;;;;;;;5.40;2.30;;;;;;;12.95;88.00;101111.22;112191;1192;61435;-76
2021/09/19 07:22:42;;;;;;;5.60;2.20;;;;;;;12.99;87.61;101107.91;111771;1193;61096;-77
2021/09/19 07:25:10;;;;;;;4.40;2.30;;;;;;;13.03;87.49;101112.38;111795;1192;61127;-73
2021/09/19 07:27:37;;;;;;;4.10;1.90;;;;;;;13.11;87.38;101111.57;112073;1193;74601;-75
2021/09/19 07:30:04;;;;;;;4.70;2.30;;;;;;;13.15;86.71;101112.33;111915;1193;71139;-73
2021/09/19 07:32:31;;;;;;;3.80;2.30;;;;;;;13.19;86.87;101115.23;112869;1193;73580;-75
2021/09/19 07:34:58;;;;;;;3.40;1.70;;;;;;;13.24;86.54;101116.87;112345;1193;61945;-76
2021/09/19 07:37:25;;;;;;;4.90;2.20;;;;;;;13.30;85.81;101116.52;111743;1193;61017;-74
2021/09/19 07:39:52;;;;;;;2.50;1.70;;;;;;;13.38;85.71;101117.42;111850;1192;75659;-75
2021/09/19 07:42:19;;;;;;;6.00;2.20;;;;;;;13.45;85.25;101115.97;111736;1193;70964;-75
2021/09/19 07:44:45;;;;;;;2.90;1.80;;;;;;;13.53;84.72;101117.10;111763;1193;73685;-73
2021/09/19 07:47:12;;;;;;;4.20;1.90;;;;;;;13.56;83.54;101118.45;112004;1193;61376;-75
2021/09/19 07:49:39;;;;;;;8.00;2.00;;;;;;;13.58;83.89;101122.33;112034;1193;61030;-75
2021/09/19 07:52:08;;;;;;;3.70;1.80;;;;;;;13.63;83.98;101122.86;112572;1192;75586;-73
2021/09/19 07:54:35;;;;;;;4.30;1.30;;;;;;;13.73;83.89;101124.45;112321;1192;71632;-73
2021/09/19 07:57:02;;;;;;;3.50;2.40;;;;;;;13.83;83.83;101126.94;111750;1193;72650;-73
2021/09/19 07:59:28;;;;;;;3.70;2.10;;;;;;;13.93;83.06;101127.71;111735;1193;60955;-73
2021/09/19 08:01:56;;;;;;;6.60;2.10;;;;;;;13.97;82.27;101133.05;112241;1193;61052;-73
2021/09/19 08:04:22;;;;;;;7.70;2.30;;;;;;;13.99;81.35;101133.54;112000;1192;75863;-74
2021/09/19 08:06:49;;;;;;;4.10;1.80;;;;;;;14.02;80.92;101133.86;112266;1193;71726;-76
2021/09/19 08:09:37;;;;;;;4.10;2.10;;;;;;;14.07;80.90;101136.84;111833;1192;73938;-74
2021/09/19 08:12:05;;;;;;;3.70;2.60;;;;;;;14.13;80.52;101137.84;112360;1193;61582;-74
2021/09/19 08:14:33;;;;;;;3.20;2.10;;;;;;;14.17;80.41;101138.50;111985;1193;61020;-75
2021/09/19 08:17:00;;;;;;;4.20;2.00;;;;;;;14.21;80.15;101141.70;114203;1193;74357;-75
2021/09/19 08:19:27;;;;;;;3.20;1.90;;;;;;;14.24;79.88;101141.13;111735;1193;72054;-75
2021/09/19 08:21:54;;;;;;;5.10;2.10;;;;;;;14.31;80.11;101144.57;112513;1193;74647;-74
2021/09/19 08:24:22;;;;;;;5.50;1.80;;;;;;;14.38;79.89;101143.38;111676;1193;61712;-74
2021/09/19 08:26:49;;;;;;;3.50;2.20;;;;;;;14.43;79.22;101146.80;112342;1192;61027;-74
2021/09/19 08:29:16;;;;;;;3.80;1.70;;;;;;;14.48;78.85;101147.84;112683;1193;74550;-75
2021/09/19 08:31:43;;;;;;;4.60;2.10;;;;;;;14.49;77.08;101152.35;111787;1193;72049;-74
2021/09/19 08:34:10;;;;;;;4.10;2.00;;;;;;;14.49;77.49;101156.95;111582;1195;72761;-77
2021/09/19 08:36:37;;;;;;;5.80;2.20;;;;;;;14.45;76.14;101157.55;112152;1193;62176;-74
2021/09/19 08:39:06;;;;;;;6.00;2.60;;;;;;;14.42;76.07;101157.39;112212;1193;61002;-75
2021/09/19 08:41:33;;;;;;;4.10;2.00;;;;;;;14.41;76.24;101160.95;112441;1192;74779;-75
2021/09/19 08:44:00;;;;;;;5.10;2.00;;;;;;;14.42;76.37;101162.44;111852;1193;71009;-75
2021/09/19 08:46:26;;;;;;;3.70;2.10;;;;;;;14.41;75.94;101163.73;112187;1193;62275;-73
2021/09/19 08:48:53;;;;;;;3.10;1.80;;;;;;;14.42;76.44;101166.83;112125;1192;61000;-73
2021/09/19 08:51:19;;;;;;;3.40;1.60;;;;;;;14.45;76.52;101168.87;112033;1193;60950;-73
2021/09/19 08:53:46;;;;;;;29.60;4.10;;;;;;;14.47;75.66;101168.44;112173;1192;61033;-75
2021/09/19 08:56:24;;;;;;;4.50;1.70;;;;;;;14.48;75.60;101169.16;112180;1193;70727;-73
2021/09/19 08:58:53;;;;;;;4.20;1.60;;;;;;;14.55;76.17;101169.48;112218;1192;72560;-73
2021/09/19 09:01:20;;;;;;;3.80;1.70;;;;;;;14.58;74.94;101171.10;112290;1193;61036;-73
2021/09/19 09:03:49;;;;;;;3.40;2.10;;;;;;;14.58;74.16;101173.98;112504;1192;61033;-74
2021/09/19 09:06:19;;;;;;;5.80;1.90;;;;;;;14.59;74.38;101174.80;112042;1192;76474;-73
2021/09/19 09:08:46;;;;;;;5.50;2.10;;;;;;;14.64;74.99;101175.59;111849;1193;72824;-73
2021/09/19 09:11:13;;;;;;;4.30;2.20;;;;;;;14.75;75.22;101177.59;112017;1192;72876;-75
2021/09/19 09:13:41;;;;;;;3.90;2.00;;;;;;;14.88;74.67;101174.27;112153;1193;62379;-75
2021/09/19 09:16:13;;;;;;;3.90;2.40;;;;;;;14.97;73.30;101178.46;112304;1192;62037;-73
2021/09/19 09:18:53;;;;;;;3.20;1.70;;;;;;;15.01;73.05;101179.73;112034;1193;74575;-74
2021/09/19 09:21:26;;;;;;;4.00;2.30;;;;;;;15.04;72.67;101180.11;112369;1193;73070;-73
2021/09/19 09:23:55;;;;;;;5.10;2.10;;;;;;;15.08;71.73;101182.79;111879;1193;73642;-73
2021/09/19 09:26:21;;;;;;;3.90;2.20;;;;;;;15.10;71.80;101187.73;112830;1192;61765;-75
2021/09/19 09:28:52;;;;;;;4.20;1.90;;;;;;;15.13;71.69;101182.02;112210;1193;61068;-72
2021/09/19 09:31:28;;;;;;;3.50;1.60;;;;;;;15.18;71.90;101185.78;112019;1192;74741;-73
2021/09/19 09:34:01;;;;;;;3.70;2.00;;;;;;;15.26;71.98;101184.86;112627;1192;71743;-74
2021/09/19 09:36:41;;;;;;;3.70;2.10;;;;;;;15.34;71.20;101186.68;112235;1193;72553;-73
2021/09/19 09:39:25;;;;;;;3.70;1.70;;;;;;;15.39;70.46;101183.68;112207;1192;61005;-73
2021/09/19 09:41:55;;;;;;;6.30;1.60;;;;;;;15.42;69.50;101182.22;112026;1193;61058;-72
2021/09/19 09:44:40;;;;;;;2.40;1.50;;;;;;;15.44;69.47;101184.33;112083;1193;75616;-74
2021/09/19 09:47:13;;;;;;;4.50;1.80;;;;;;;15.52;69.29;101185.30;111850;1193;69832;-74
2021/09/19 09:49:55;;;;;;;3.00;1.80;;;;;;;15.60;68.89;101183.20;112351;1193;73276;-72
2021/09/19 09:52:28;;;;;;;3.80;1.30;;;;;;;15.67;67.09;101183.50;111790;1193;61800;-72
2021/09/19 09:55:08;;;;;;;5.00;1.60;;;;;;;15.67;66.34;101178.68;112089;1193;61045;-73
2021/09/19 09:57:45;;;;;;;2.80;1.40;;;;;;;15.68;66.87;101176.38;112024;1193;75592;-74
2021/09/19 10:00:17;;;;;;;2.60;1.50;;;;;;;15.73;66.73;101173.14;111752;1193;72477;-76
2021/09/19 10:02:51;;;;;;;3.70;1.80;;;;;;;15.79;67.12;101173.27;113096;1192;73590;-75
2021/09/19 10:05:20;;;;;;;3.20;1.90;;;;;;;15.84;65.69;101177.74;112309;1193;61445;-77
2021/09/19 10:07:47;;;;;;;3.50;1.70;;;;;;;15.87;65.12;101175.41;112233;1192;61333;-75
2021/09/19 10:10:17;;;;;;;3.60;1.70;;;;;;;15.89;64.93;101176.02;111860;1193;75650;-73
2021/09/19 10:12:46;;;;;;;2.20;1.30;;;;;;;15.89;64.44;101177.67;111854;1193;73260;-73
2021/09/19 10:15:14;;;;;;;2.70;1.90;;;;;;;15.88;65.30;101179.52;112874;1192;72519;-74
2021/09/19 10:17:40;;;;;;;4.90;1.70;;;;;;;15.91;66.01;101172.98;112344;1192;61043;-73
2021/09/19 10:20:18;;;;;;;4.70;1.80;;;;;;;15.89;66.72;101181.71;112270;1192;60980;-73
2021/09/19 10:22:48;;;;;;;3.40;1.70;;;;;;;15.90;65.93;101188.30;112494;1192;75636;-73
2021/09/19 10:25:35;;;;;;;2.40;1.40;;;;;;;15.90;65.36;101187.90;111868;1192;71163;-73
2021/09/19 10:28:16;;;;;;;3.60;1.60;;;;;;;15.92;64.19;101187.36;112533;1192;72581;-73
2021/09/19 10:31:09;;;;;;;3.20;2.10;;;;;;;15.91;64.58;101187.23;111765;1193;61051;-74
2021/09/19 10:33:41;;;;;;;4.50;1.70;;;;;;;15.92;64.20;101180.16;112066;1192;60986;-73
2021/09/19 10:36:29;;;;;;;5.00;1.50;;;;;;;15.90;63.72;101174.35;111739;1193;75702;-73
2021/09/19 10:39:15;;;;;;;3.40;2.00;;;;;;;15.88;64.72;101173.20;111776;1193;71214;-74
2021/09/19 10:42:16;;;;;;;4.00;2.00;;;;;;;15.87;65.34;101175.03;111994;1192;73755;-74
2021/09/19 10:44:45;;;;;;;5.90;2.30;;;;;;;15.86;65.43;101169.69;112037;1193;61471;-73
2021/09/19 10:47:13;;;;;;;2.50;1.70;;;;;;;15.81;64.50;101172.66;111791;1193;61436;-75
2021/09/19 10:49:40;;;;;;;3.10;1.70;;;;;;;15.77;64.57;101167.41;113986;1192;75000;-75
2021/09/19 10:52:09;;;;;;;4.80;1.80;;;;;;;15.73;64.56;101164.89;111941;1187;71241;-75
2021/09/19 10:54:49;;;;;;;2.90;1.40;;;;;;;15.68;64.99;101164.98;112018;1192;74123;-75
2021/09/19 10:57:27;;;;;;;2.70;1.80;;;;;;;15.63;65.10;101163.59;112009;1192;61623;-73
2021/09/19 11:00:18;;;;;;;3.70;1.90;;;;;;;15.57;65.13;101165.86;111980;1192;62046;-74
2021/09/19 11:03:06;;;;;;;3.80;2.00;;;;;;;15.47;65.50;101164.23;111995;1192;74560;-73
2021/09/19 11:05:36;;;;;;;3.10;1.60;;;;;;;15.35;66.60;101162.59;112317;1193;71052;-73
2021/09/19 11:08:08;;;;;;;3.90;1.90;;;;;;;15.30;66.91;101161.16;112033;1192;72816;-74
2021/09/19 11:10:55;;;;;;;5.10;2.00;;;;;;;15.30;66.52;101161.48;111705;1193;61048;-75
2021/09/19 11:13:26;;;;;;;3.30;1.60;;;;;;;15.32;66.23;101162.69;111816;1193;61070;-74
2021/09/19 11:16:29;;;;;;;4.20;2.00;;;;;;;15.32;65.18;101165.27;112115;1192;74547;-74
2021/09/19 11:19:00;;;;;;;4.80;1.70;;;;;;;15.32;64.80;101166.20;112293;1192;72045;-75
2021/09/19 11:21:26;;;;;;;4.00;1.70;;;;;;;15.34;65.40;101165.67;112015;1192;73745;-73
2021/09/19 11:24:06;;;;;;;2.60;1.70;;;;;;;15.41;65.93;101159.92;111808;1193;61044;-73